createdAt,value
2018-08-23T00:00:12.326Z,43.33
2018-08-23T00:01:27.261Z,44.98
2018-08-23T00:02:33.798Z,47.45
2018-08-23T00:03:40.129Z,47.10
2018-08-23T00:04:44.328Z,38.65
2018-08-23T00:05:54.498Z,45.40
2018-08-23T00:07:01.775Z,51.20
2018-08-23T00:09:40.409Z,46.28
2018-08-23T00:10:54.396Z,50.52
2018-08-23T00:12:00.740Z,52.43
2018-08-23T00:13:07.235Z,51.48
2018-08-23T00:14:12.322Z,42.88
2018-08-23T00:15:20.050Z,60.65
2018-08-23T00:16:38.578Z,47.93
2018-08-23T00:17:47.725Z,47.33
2018-08-23T00:18:52.428Z,42.98
2018-08-23T00:19:56.500Z,47.98
2018-08-23T00:21:00.926Z,50.38
2018-08-23T00:22:05.143Z,48.52
2018-08-23T00:23:09.635Z,44.80
2018-08-23T00:24:22.775Z,45.83
2018-08-23T00:25:26.885Z,43.55
2018-08-23T00:26:30.968Z,48.25
2018-08-23T00:27:35.177Z,49.65
2018-08-23T00:28:39.412Z,45.38
2018-08-23T00:29:43.497Z,43.48
2018-08-23T00:30:47.754Z,52.05
2018-08-23T00:31:57.045Z,51.10
2018-08-23T00:33:02.676Z,49.77
2018-08-23T00:34:06.897Z,47.10
2018-08-23T00:35:16.459Z,45.33
2018-08-23T00:36:20.501Z,49.95
2018-08-23T00:37:24.547Z,53.35
2018-08-23T00:38:28.919Z,47.73
2018-08-23T00:39:33.048Z,45.78
2018-08-23T00:40:40.892Z,45.52
2018-08-23T00:41:50.038Z,45.03
2018-08-23T00:42:59.319Z,42.17
2018-08-23T00:44:04.875Z,54.75
2018-08-23T00:45:17.196Z,47.27
2018-08-23T00:46:21.459Z,57.15
2018-08-23T00:47:26.991Z,54.30
2018-08-23T00:48:31.144Z,46.55
2018-08-23T00:49:35.291Z,44.53
2018-08-23T00:51:01.163Z,46.98
2018-08-23T00:52:05.427Z,47.17
2018-08-23T00:53:09.805Z,43.15
2018-08-23T00:54:14.448Z,43.23
2018-08-23T00:55:28.368Z,51.92
2018-08-23T00:56:32.425Z,50.38
2018-08-23T00:57:37.124Z,50.25
2018-08-23T00:58:46.476Z,47.60
2018-08-23T00:59:55.203Z,46.58
2018-08-23T01:01:03.695Z,58.95
2018-08-23T01:02:09.305Z,49.73
2018-08-23T01:03:13.568Z,56.13
2018-08-23T01:04:20.368Z,48.73
2018-08-23T01:05:30.204Z,54.95
2018-08-23T01:06:43.202Z,50.60
2018-08-23T01:07:47.356Z,50.50
2018-08-23T01:08:51.689Z,50.48
2018-08-23T01:09:56.798Z,46.83
2018-08-23T01:11:00.809Z,46.42
2018-08-23T01:12:05.187Z,50.80
2018-08-23T01:13:09.254Z,53.05
2018-08-23T01:14:13.507Z,55.78
2018-08-23T01:15:17.581Z,50.67
2018-08-23T01:16:21.619Z,53.65
2018-08-23T01:17:25.704Z,52.60
2018-08-23T01:18:29.852Z,49.85
2018-08-23T01:19:39.203Z,48.70
2018-08-23T01:20:44.311Z,48.13
2018-08-23T01:21:54.573Z,52.20
2018-08-23T01:23:01.715Z,47.98
2018-08-23T01:24:06.060Z,50.00
2018-08-23T01:25:10.192Z,52.62
2018-08-23T01:26:14.327Z,53.90
2018-08-23T01:27:24.060Z,47.90
2018-08-23T01:28:28.360Z,47.35
2018-08-23T01:29:32.460Z,52.53
2018-08-23T01:30:38.046Z,55.63
2018-08-23T01:31:43.181Z,54.50
2018-08-23T01:32:47.386Z,49.63
2018-08-23T01:33:54.599Z,59.40
2018-08-23T01:35:00.274Z,54.93
2018-08-23T01:36:04.464Z,49.30
2018-08-23T01:37:08.541Z,49.20
2018-08-23T01:38:13.236Z,55.12
2018-08-23T01:39:17.713Z,53.85
2018-08-23T01:40:21.787Z,60.28
2018-08-23T01:41:26.191Z,54.00
2018-08-23T01:42:32.806Z,50.43
2018-08-23T01:43:36.923Z,54.83
2018-08-23T01:44:42.916Z,62.98
2018-08-23T01:45:46.951Z,54.67
2018-08-23T01:46:51.020Z,60.50
2018-08-23T01:47:56.041Z,51.68
2018-08-23T01:49:00.584Z,64.05
2018-08-23T01:50:04.691Z,61.45
2018-08-23T01:51:08.759Z,59.77
2018-08-23T01:52:12.796Z,51.02
2018-08-23T01:53:19.265Z,52.05
2018-08-23T01:54:23.331Z,60.38
2018-08-23T01:55:27.689Z,57.25
2018-08-23T01:56:32.036Z,53.58
2018-08-23T01:57:36.428Z,53.48
2018-08-23T02:00:09.665Z,56.05
2018-08-23T02:01:16.767Z,62.03
2018-08-23T02:02:21.101Z,60.95
2018-08-23T02:03:25.375Z,51.30
2018-08-23T02:04:29.359Z,62.90
2018-08-23T02:05:33.722Z,58.70
2018-08-23T02:06:37.818Z,60.67
2018-08-23T02:07:44.708Z,68.35
2018-08-23T02:08:48.809Z,61.60
2018-08-23T02:09:53.340Z,51.20
2018-08-23T02:10:57.384Z,56.33
2018-08-23T02:12:01.472Z,60.43
2018-08-23T02:13:10.646Z,62.80
2018-08-23T02:14:15.209Z,52.73
2018-08-23T02:15:19.348Z,53.95
2018-08-23T02:16:23.453Z,61.85
2018-08-23T02:17:27.679Z,62.53
2018-08-23T02:18:32.657Z,55.75
2018-08-23T02:19:49.030Z,54.67
2018-08-23T02:20:57.200Z,55.40
2018-08-23T02:22:01.296Z,55.20
2018-08-23T02:23:05.800Z,57.73
2018-08-23T02:24:09.860Z,60.52
2018-08-23T02:25:13.969Z,62.38
2018-08-23T02:26:18.026Z,79.27
2018-08-23T02:27:22.119Z,64.70
2018-08-23T02:28:26.211Z,57.85
2018-08-23T02:29:38.245Z,52.25
2018-08-23T02:30:50.327Z,54.30
2018-08-23T02:31:54.428Z,63.52
2018-08-23T02:32:58.671Z,57.03
2018-08-23T02:34:02.777Z,59.83
2018-08-23T02:35:07.068Z,61.15
2018-08-23T02:36:18.071Z,57.13
2018-08-23T02:37:22.340Z,66.80
2018-08-23T02:38:28.291Z,62.75
2018-08-23T02:39:32.351Z,75.87
2018-08-23T02:40:37.710Z,54.67
2018-08-23T02:41:42.357Z,63.90
2018-08-23T02:42:46.366Z,57.15
2018-08-23T02:43:50.432Z,56.80
2018-08-23T02:44:56.396Z,60.88
2018-08-23T02:46:03.224Z,77.55
2018-08-23T02:47:07.365Z,66.30
2018-08-23T02:48:11.378Z,65.97
2018-08-23T02:49:17.035Z,62.98
2018-08-23T02:50:21.054Z,61.10
2018-08-23T02:51:40.940Z,62.55
2018-08-23T02:52:45.025Z,60.90
2018-08-23T02:53:49.667Z,63.00
2018-08-23T02:54:54.075Z,63.55
2018-08-23T02:56:03.297Z,61.95
2018-08-23T02:57:11.831Z,79.30
2018-08-23T02:58:16.068Z,63.13
2018-08-23T02:59:20.125Z,63.50
2018-08-23T03:00:28.460Z,62.00
2018-08-23T03:01:34.038Z,63.70
2018-08-23T03:02:38.655Z,56.45
2018-08-23T03:03:55.038Z,62.73
2018-08-23T03:04:59.349Z,66.50
2018-08-23T03:06:03.790Z,68.25
2018-08-23T03:07:07.932Z,61.08
2018-08-23T03:08:12.187Z,62.30
2018-08-23T03:09:16.283Z,59.80
2018-08-23T03:10:20.452Z,72.42
2018-08-23T03:11:25.105Z,59.10
2018-08-23T03:12:29.171Z,75.30
2018-08-23T03:13:35.125Z,62.15
2018-08-23T03:14:39.639Z,81.65
2018-08-23T03:15:43.667Z,65.28
2018-08-23T03:17:30.986Z,64.17
2018-08-23T03:18:35.048Z,66.55
2018-08-23T03:19:39.662Z,64.42
2018-08-23T03:20:43.741Z,75.90
2018-08-23T03:21:50.945Z,72.55
2018-08-23T03:22:56.188Z,62.23
2018-08-23T03:24:00.287Z,66.15
2018-08-23T03:25:05.692Z,80.25
2018-08-23T03:26:09.751Z,72.30
2018-08-23T03:27:14.025Z,70.50
2018-08-23T03:28:18.238Z,77.62
2018-08-23T03:29:22.338Z,66.12
2018-08-23T03:30:26.393Z,62.73
2018-08-23T03:31:30.499Z,82.25
2018-08-23T03:32:34.498Z,72.85
2018-08-23T03:33:38.662Z,74.62
2018-08-23T03:34:42.713Z,67.75
2018-08-23T03:35:46.802Z,63.13
2018-08-23T03:36:50.871Z,67.82
2018-08-23T03:37:54.965Z,70.72
2018-08-23T03:38:59.320Z,70.45
2018-08-23T03:40:03.734Z,74.03
2018-08-23T03:41:07.821Z,65.52
2018-08-23T03:42:12.217Z,70.37
2018-08-23T03:43:16.345Z,77.25
2018-08-23T03:44:26.531Z,63.68
2018-08-23T03:45:30.547Z,75.75
2018-08-23T03:46:46.416Z,68.92
2018-08-23T03:47:52.957Z,66.47
2018-08-23T03:49:04.215Z,65.67
2018-08-23T03:52:22.678Z,63.40
2018-08-23T03:53:42.272Z,67.10
2018-08-23T03:54:57.317Z,70.22
2018-08-23T03:56:07.847Z,77.27
2018-08-23T03:57:17.081Z,70.25
2018-08-23T03:58:21.186Z,76.37
2018-08-23T03:59:25.217Z,67.12
2018-08-23T04:01:06.298Z,70.17
2018-08-23T04:02:10.492Z,71.02
2018-08-23T04:03:20.470Z,76.92
2018-08-23T04:04:24.522Z,76.50
2018-08-23T04:05:28.526Z,78.47
2018-08-23T04:06:33.343Z,83.58
2018-08-23T04:07:39.354Z,76.35
2018-08-23T04:08:43.512Z,79.07
2018-08-23T04:09:47.515Z,72.03
2018-08-23T04:10:51.568Z,73.37
2018-08-23T04:11:55.786Z,76.53
2018-08-23T04:12:59.831Z,85.00
2018-08-23T04:14:03.895Z,80.97
2018-08-23T04:15:24.657Z,76.02
2018-08-23T04:16:30.259Z,92.60
2018-08-23T04:17:34.590Z,74.25
2018-08-23T04:18:38.666Z,70.57
2018-08-23T04:19:49.561Z,78.33
2018-08-23T04:20:56.053Z,77.72
2018-08-23T04:22:01.253Z,81.12
2018-08-23T04:23:05.397Z,81.15
2018-08-23T04:24:09.539Z,84.05
2018-08-23T04:25:13.574Z,79.30
2018-08-23T04:26:19.634Z,75.20
2018-08-23T04:27:25.424Z,77.32
2018-08-23T04:28:29.409Z,85.55
2018-08-23T04:29:38.711Z,80.32
2018-08-23T04:30:42.736Z,76.40
2018-08-23T04:31:47.017Z,83.78
2018-08-23T04:32:51.365Z,86.87
2018-08-23T04:33:55.400Z,80.03
2018-08-23T04:35:00.770Z,84.45
2018-08-23T04:36:05.591Z,81.35
2018-08-23T04:37:09.623Z,75.90
2018-08-23T04:38:14.844Z,92.78
2018-08-23T04:39:19.335Z,96.90
2018-08-23T04:40:23.436Z,78.12
2018-08-23T04:41:27.631Z,80.60
2018-08-23T04:42:31.805Z,87.55
2018-08-23T04:43:35.844Z,74.07
2018-08-23T04:44:48.036Z,81.22
2018-08-23T04:45:52.318Z,79.10
2018-08-23T04:46:56.611Z,90.55
2018-08-23T04:48:04.970Z,105.47
2018-08-23T04:49:09.314Z,76.42
2018-08-23T04:50:13.779Z,81.55
2018-08-23T04:51:18.346Z,85.87
2018-08-23T04:52:22.507Z,83.27
2018-08-23T04:53:26.607Z,72.70
2018-08-23T04:54:30.601Z,87.85
2018-08-23T04:55:34.640Z,86.65
2018-08-23T04:56:44.816Z,84.58
2018-08-23T04:57:49.640Z,89.77
2018-08-23T04:58:53.752Z,78.57
2018-08-23T04:59:57.776Z,82.92
2018-08-23T05:01:01.826Z,97.92
2018-08-23T05:02:06.207Z,84.65
2018-08-23T05:03:10.264Z,87.20
2018-08-23T05:04:15.377Z,87.42
2018-08-23T05:05:19.633Z,89.32
2018-08-23T05:06:23.790Z,77.53
2018-08-23T05:07:27.977Z,85.87
2018-08-23T05:08:32.211Z,89.65
2018-08-23T05:09:36.689Z,88.82
2018-08-23T05:10:40.808Z,94.50
2018-08-23T05:11:45.159Z,89.03
2018-08-23T05:12:49.355Z,81.95
2018-08-23T05:13:54.248Z,86.47
2018-08-23T05:14:58.650Z,89.25
2018-08-23T05:16:03.322Z,96.82
2018-08-23T05:17:09.765Z,92.12
2018-08-23T05:18:13.897Z,96.30
2018-08-23T05:19:19.506Z,82.08
2018-08-23T05:20:24.331Z,88.55
2018-08-23T05:21:28.601Z,81.32
2018-08-23T05:22:34.536Z,94.47
2018-08-23T05:23:39.084Z,95.72
2018-08-23T05:24:43.661Z,91.15
2018-08-23T05:25:48.045Z,89.97
2018-08-23T05:26:52.690Z,97.67
2018-08-23T05:28:15.486Z,86.72
2018-08-23T05:29:21.200Z,90.32
2018-08-23T05:30:30.848Z,92.62
2018-08-23T05:31:34.911Z,93.50
2018-08-23T05:32:39.046Z,88.75
2018-08-23T05:33:43.129Z,85.22
2018-08-23T05:34:47.693Z,85.35
2018-08-23T05:35:51.773Z,92.33
2018-08-23T05:36:55.859Z,92.37
2018-08-23T05:38:01.356Z,95.45
2018-08-23T05:39:08.472Z,93.15
2018-08-23T05:40:13.824Z,87.72
2018-08-23T05:41:21.576Z,84.32
2018-08-23T05:42:39.335Z,89.28
2018-08-23T05:43:43.925Z,94.83
2018-08-23T05:44:48.172Z,85.32
2018-08-23T05:45:53.716Z,86.28
2018-08-23T05:46:58.131Z,96.10
2018-08-23T05:48:34.149Z,93.27
2018-08-23T05:49:38.884Z,85.28
2018-08-23T05:50:44.755Z,84.70
2018-08-23T05:51:48.791Z,73.30
2018-08-23T05:52:53.761Z,77.80
2018-08-23T05:53:59.239Z,68.07
2018-08-23T05:55:03.710Z,69.22
2018-08-23T05:56:08.306Z,67.45
2018-08-23T05:57:12.780Z,63.42
2018-08-23T05:58:23.587Z,78.20
2018-08-23T05:59:27.738Z,61.25
2018-08-23T06:00:31.839Z,63.58
2018-08-23T06:01:35.943Z,64.10
2018-08-23T06:02:40.415Z,60.08
2018-08-23T06:03:45.984Z,69.10
2018-08-23T06:04:50.217Z,61.33
2018-08-23T06:05:54.723Z,60.83
2018-08-23T06:06:58.730Z,57.95
2018-08-23T06:08:02.748Z,58.80
2018-08-23T06:09:17.270Z,66.37
2018-08-23T06:10:21.389Z,65.92
2018-08-23T06:11:26.272Z,56.80
2018-08-23T06:12:32.942Z,62.67
2018-08-23T06:13:37.047Z,62.05
2018-08-23T06:14:41.169Z,66.15
2018-08-23T06:15:50.540Z,55.20
2018-08-23T06:16:56.555Z,65.25
2018-08-23T06:18:00.904Z,70.35
2018-08-23T06:19:05.054Z,59.40
2018-08-23T06:20:09.458Z,60.10
2018-08-23T06:21:12.988Z,63.40
2018-08-23T06:22:17.176Z,64.90
2018-08-23T06:23:21.265Z,70.10
2018-08-23T06:24:28.561Z,64.82
2018-08-23T06:25:32.812Z,84.35
2018-08-23T06:26:46.669Z,78.10
2018-08-23T06:27:51.152Z,74.82
2018-08-23T06:28:55.290Z,75.95
2018-08-23T06:29:59.660Z,70.03
2018-08-23T06:31:05.376Z,71.55
2018-08-23T06:32:10.712Z,84.35
2018-08-23T06:33:30.177Z,75.45
2018-08-23T06:34:35.959Z,72.55
2018-08-23T06:35:44.518Z,68.90
2018-08-23T06:36:48.574Z,79.22
2018-08-23T06:37:57.601Z,67.03
2018-08-23T06:39:02.266Z,69.35
2018-08-23T06:40:07.272Z,74.20
2018-08-23T06:41:11.503Z,70.57
2018-08-23T06:42:15.538Z,76.02
2018-08-23T06:43:20.085Z,69.25
2018-08-23T06:44:29.088Z,73.75
2018-08-23T06:45:33.792Z,81.00
2018-08-23T06:46:39.055Z,66.97
2018-08-23T06:47:46.845Z,79.65
2018-08-23T06:48:50.923Z,76.30
2018-08-23T06:49:56.001Z,69.07
2018-08-23T06:51:01.242Z,68.35
2018-08-23T06:52:12.996Z,70.62
2018-08-23T06:53:17.913Z,69.32
2018-08-23T06:54:22.080Z,73.70
2018-08-23T06:55:31.316Z,79.17
2018-08-23T06:56:38.032Z,77.58
2018-08-23T06:57:47.128Z,73.83
2018-08-23T06:58:51.861Z,91.17
2018-08-23T06:59:57.232Z,83.15
2018-08-23T07:01:05.504Z,79.07
2018-08-23T07:02:11.439Z,82.85
2018-08-23T07:03:17.623Z,82.78
2018-08-23T07:04:22.129Z,84.62
2018-08-23T07:05:27.715Z,74.90
2018-08-23T07:06:32.711Z,88.37
2018-08-23T07:07:37.072Z,91.20
2018-08-23T07:08:41.681Z,79.60
2018-08-23T07:09:45.938Z,83.22
2018-08-23T07:10:50.574Z,81.72
2018-08-23T07:12:03.231Z,75.72
2018-08-23T07:13:07.615Z,89.32
2018-08-23T07:14:16.767Z,75.05
2018-08-23T07:15:25.903Z,80.77
2018-08-23T07:16:30.252Z,69.90
2018-08-23T07:17:35.013Z,76.95
2018-08-23T07:18:39.187Z,74.87
2018-08-23T07:19:44.978Z,76.35
2018-08-23T07:20:50.342Z,80.95
2018-08-23T07:21:55.174Z,79.75
2018-08-23T07:22:59.403Z,84.03
2018-08-23T07:24:03.795Z,86.37
2018-08-23T07:25:13.225Z,80.32
2018-08-23T07:26:17.355Z,80.72
2018-08-23T07:27:24.543Z,87.55
2018-08-23T07:28:29.417Z,80.22
2018-08-23T07:29:36.519Z,88.35
2018-08-23T07:30:41.603Z,102.95
2018-08-23T07:31:57.360Z,100.87
2018-08-23T07:33:02.255Z,85.92
2018-08-23T07:34:06.828Z,98.10
2018-08-23T07:35:16.381Z,96.20
2018-08-23T07:36:29.106Z,90.45
2018-08-23T07:37:37.830Z,85.45
2018-08-23T07:38:47.023Z,103.53
2018-08-23T07:39:58.487Z,95.85
2018-08-23T07:41:03.389Z,103.87
2018-08-23T07:42:18.194Z,84.67
2018-08-23T07:43:23.145Z,107.40
2018-08-23T07:44:27.372Z,111.97
2018-08-23T07:45:31.500Z,110.48
2018-08-23T07:46:36.901Z,110.78
2018-08-23T07:47:46.213Z,115.65
2018-08-23T07:48:52.766Z,116.93
2018-08-23T07:50:02.161Z,108.47
2018-08-23T07:51:26.141Z,105.50
2018-08-23T07:52:32.067Z,111.62
2018-08-23T07:53:36.728Z,110.97
2018-08-23T07:54:42.324Z,121.87
2018-08-23T07:55:46.469Z,107.25
2018-08-23T07:56:52.364Z,113.10
2018-08-23T07:57:57.924Z,93.95
2018-08-23T07:59:03.128Z,104.92
2018-08-23T08:00:44.902Z,124.47
2018-08-23T08:01:49.774Z,107.97
2018-08-23T08:02:56.256Z,107.70
2018-08-23T08:04:01.575Z,124.60
2018-08-23T08:05:06.619Z,102.10
2018-08-23T08:06:17.087Z,114.25
2018-08-23T08:07:26.776Z,110.60
2018-08-23T08:08:35.094Z,106.50
2018-08-23T08:09:41.379Z,126.70
2018-08-23T08:10:48.451Z,116.42
2018-08-23T08:11:57.851Z,118.00
2018-08-23T08:13:02.344Z,105.20
2018-08-23T08:14:15.667Z,104.90
2018-08-23T08:15:21.337Z,107.58
2018-08-23T08:16:31.384Z,112.70
2018-08-23T08:17:36.328Z,123.10
2018-08-23T08:18:43.747Z,116.42
2018-08-23T08:20:02.841Z,102.58
2018-08-23T08:21:07.214Z,110.42
2018-08-23T08:22:11.416Z,104.00
2018-08-23T08:23:16.876Z,108.52
2018-08-23T08:24:23.320Z,100.78
2018-08-23T08:25:27.774Z,95.15
2018-08-23T08:26:33.684Z,98.27
2018-08-23T08:27:39.812Z,108.37
2018-08-23T08:28:46.775Z,105.52
2018-08-23T08:29:51.674Z,99.15
2018-08-23T08:31:01.390Z,117.13
2018-08-23T08:32:06.630Z,109.78
2018-08-23T08:33:14.101Z,112.15
2018-08-23T08:34:19.239Z,101.00
2018-08-23T08:35:23.464Z,113.47
2018-08-23T08:36:31.739Z,101.67
2018-08-23T08:37:36.095Z,117.55
2018-08-23T08:38:40.355Z,101.50
2018-08-23T08:39:45.178Z,107.65
2018-08-23T08:40:52.282Z,108.17
2018-08-23T08:41:57.737Z,104.12
2018-08-23T08:43:04.557Z,104.90
2018-08-23T08:44:09.058Z,111.03
2018-08-23T08:45:13.832Z,153.42
2018-08-23T08:46:18.249Z,238.43
2018-08-23T08:47:22.585Z,223.43
2018-08-23T08:48:33.062Z,333.20
2018-08-23T08:49:37.159Z,735.83
2018-08-23T08:52:10.796Z,184.48
2018-08-23T08:53:15.195Z,275.05
2018-08-23T08:54:19.648Z,421.70
2018-08-23T08:55:24.704Z,335.95
2018-08-23T08:56:35.473Z,288.23
2018-08-23T08:57:42.023Z,293.17
2018-08-23T08:58:47.219Z,201.95
2018-08-23T08:59:51.402Z,118.17
2018-08-23T09:00:58.008Z,130.75
2018-08-23T09:02:02.290Z,86.55
2018-08-23T09:03:06.843Z,88.55
2018-08-23T09:04:15.401Z,112.20
2018-08-23T09:05:19.772Z,86.05
2018-08-23T09:06:28.973Z,79.12
2018-08-23T09:07:36.661Z,68.15
2018-08-23T09:08:41.173Z,74.62
2018-08-23T09:09:45.458Z,75.67
2018-08-23T09:10:50.324Z,59.10
2018-08-23T09:11:55.301Z,71.25
2018-08-23T09:12:59.383Z,59.05
2018-08-23T09:14:07.094Z,55.98
2018-08-23T09:15:11.251Z,56.88
2018-08-23T09:16:16.085Z,42.33
2018-08-23T09:17:38.766Z,44.25
2018-08-23T09:18:46.411Z,38.42
2018-08-23T09:20:08.249Z,42.50
2018-08-23T09:21:14.779Z,38.58
2018-08-23T09:22:20.275Z,33.58
2018-08-23T09:23:25.457Z,33.23
2018-08-23T09:24:30.374Z,35.38
2018-08-23T09:25:40.174Z,34.25
2018-08-23T09:26:45.061Z,33.95
2018-08-23T09:27:50.204Z,38.17
2018-08-23T09:28:54.805Z,35.45
2018-08-23T09:29:59.936Z,36.53
2018-08-23T09:31:06.378Z,42.70
2018-08-23T09:32:13.952Z,38.20
2018-08-23T09:33:24.014Z,31.02
2018-08-23T09:34:28.132Z,36.95
2018-08-23T09:35:33.539Z,33.92
2018-08-23T09:36:38.303Z,35.20
2018-08-23T09:37:43.510Z,41.70
2018-08-23T09:38:48.915Z,34.73
2018-08-23T09:39:54.441Z,33.63
2018-08-23T09:40:58.826Z,34.63
2018-08-23T09:42:03.732Z,36.42
2018-08-23T09:43:08.410Z,34.48
2018-08-23T09:44:12.587Z,44.05
2018-08-23T09:45:20.537Z,29.72
2018-08-23T09:46:25.057Z,26.30
2018-08-23T09:47:31.328Z,37.05
2018-08-23T09:48:36.635Z,28.55
2018-08-23T09:49:44.177Z,28.42
2018-08-23T09:50:48.721Z,32.30
2018-08-23T09:51:53.335Z,23.75
2018-08-23T09:52:58.676Z,26.90
2018-08-23T09:54:03.911Z,26.02
2018-08-23T09:55:09.299Z,22.58
2018-08-23T09:56:31.205Z,20.27
2018-08-23T09:57:37.369Z,23.30
2018-08-23T09:58:42.222Z,23.42
2018-08-23T09:59:50.703Z,25.15
2018-08-23T10:01:00.590Z,23.22
2018-08-23T10:02:12.387Z,22.10
2018-08-23T10:03:22.001Z,24.85
2018-08-23T10:04:32.596Z,25.57
2018-08-23T10:05:47.560Z,19.02
2018-08-23T10:07:04.511Z,21.52
2018-08-23T10:08:13.903Z,26.97
2018-08-23T10:09:23.047Z,22.45
2018-08-23T10:10:32.730Z,22.37
2018-08-23T10:11:43.308Z,22.05
2018-08-23T10:12:52.709Z,21.48
2018-08-23T10:14:16.175Z,18.87
2018-08-23T10:15:26.616Z,20.25
2018-08-23T10:16:36.074Z,19.95
2018-08-23T10:17:46.788Z,23.57
2018-08-23T10:18:52.216Z,19.02
2018-08-23T10:20:01.695Z,29.87
2018-08-23T10:21:06.629Z,22.25
2018-08-23T10:22:16.229Z,23.07
2018-08-23T10:23:24.846Z,18.35
2018-08-23T10:24:33.263Z,19.67
2018-08-23T10:25:43.545Z,16.32
2018-08-23T10:26:49.168Z,21.75
2018-08-23T10:27:56.107Z,15.15
2018-08-23T10:29:01.340Z,13.93
2018-08-23T10:30:05.840Z,20.70
2018-08-23T10:31:12.271Z,18.20
2018-08-23T10:32:16.415Z,18.37
2018-08-23T10:33:25.924Z,14.63
2018-08-23T10:34:30.218Z,12.07
2018-08-23T10:35:48.216Z,18.37
2018-08-23T10:36:56.050Z,12.50
2018-08-23T10:38:00.665Z,17.92
2018-08-23T10:39:08.503Z,12.95
2018-08-23T10:40:13.167Z,17.30
2018-08-23T10:41:19.186Z,15.43
2018-08-23T10:42:24.115Z,33.33
2018-08-23T10:43:33.292Z,25.70
2018-08-23T10:44:37.492Z,27.60
2018-08-23T10:45:43.497Z,17.25
2018-08-23T10:46:54.682Z,30.92
2018-08-23T10:48:04.134Z,26.05
2018-08-23T10:49:08.727Z,16.48
2018-08-23T10:50:13.388Z,13.60
2018-08-23T10:51:19.283Z,20.57
2018-08-23T10:52:23.639Z,14.60
2018-08-23T10:53:28.256Z,16.07
2018-08-23T10:54:32.583Z,16.62
2018-08-23T10:55:37.997Z,13.78
2018-08-23T10:56:43.352Z,15.35
2018-08-23T10:57:49.271Z,21.68
2018-08-23T10:58:53.897Z,13.35
2018-08-23T10:59:58.238Z,15.75
2018-08-23T11:01:03.125Z,18.37
2018-08-23T11:02:07.568Z,15.63
2018-08-23T11:03:12.434Z,11.60
2018-08-23T11:04:16.636Z,14.15
2018-08-23T11:05:22.133Z,17.42
2018-08-23T11:06:26.303Z,13.45
2018-08-23T11:07:35.534Z,16.50
2018-08-23T11:08:39.876Z,11.18
2018-08-23T11:09:49.350Z,13.90
2018-08-23T11:10:59.357Z,12.73
2018-08-23T11:12:04.585Z,14.83
2018-08-23T11:13:13.835Z,12.82
2018-08-23T11:14:23.218Z,21.97
2018-08-23T11:15:28.431Z,12.20
2018-08-23T11:16:40.072Z,18.27
2018-08-23T11:17:52.189Z,13.62
2018-08-23T11:19:01.916Z,10.48
2018-08-23T11:20:11.805Z,13.20
2018-08-23T11:21:17.740Z,14.98
2018-08-23T11:22:26.414Z,13.80
2018-08-23T11:23:31.030Z,12.18
2018-08-23T11:24:35.573Z,10.95
2018-08-23T11:25:41.035Z,9.55
2018-08-23T11:27:13.427Z,14.73
2018-08-23T11:28:23.156Z,16.48
2018-08-23T11:29:28.200Z,13.18
2018-08-23T11:30:33.726Z,14.65
2018-08-23T11:31:41.674Z,18.62
2018-08-23T11:32:47.229Z,17.30
2018-08-23T11:34:06.218Z,10.03
2018-08-23T11:35:13.526Z,20.90
2018-08-23T11:36:18.289Z,9.40
2018-08-23T11:37:23.998Z,9.73
2018-08-23T11:38:30.385Z,9.85
2018-08-23T11:39:34.635Z,7.53
2018-08-23T11:40:39.044Z,10.75
2018-08-23T11:41:46.001Z,11.93
2018-08-23T11:42:52.665Z,20.12
2018-08-23T11:44:00.194Z,9.15
2018-08-23T11:45:09.504Z,9.18
2018-08-23T11:46:15.840Z,8.85
2018-08-23T11:47:20.443Z,8.75
2018-08-23T11:48:25.805Z,10.70
2018-08-23T11:49:32.108Z,18.00
2018-08-23T11:50:42.534Z,11.50
2018-08-23T11:51:52.968Z,7.12
2018-08-23T11:53:14.647Z,9.90
2018-08-23T11:54:18.752Z,6.60
2018-08-23T11:55:23.286Z,9.70
2018-08-23T11:56:28.742Z,7.50
2018-08-23T11:57:38.017Z,9.48
2018-08-23T11:58:48.239Z,11.68
2018-08-23T12:00:00.553Z,16.55
2018-08-23T12:01:22.068Z,12.40
2018-08-23T12:03:03.393Z,8.45
2018-08-23T12:04:08.870Z,12.20
2018-08-23T12:05:18.848Z,8.40
2018-08-23T12:06:23.569Z,7.10
2018-08-23T12:07:28.290Z,6.00
2018-08-23T12:08:33.539Z,10.38
2018-08-23T12:09:45.407Z,9.25
2018-08-23T12:10:55.065Z,12.73
2018-08-23T12:12:00.242Z,7.70
2018-08-23T12:13:06.754Z,6.90
2018-08-23T12:14:12.757Z,6.67
2018-08-23T12:15:24.644Z,9.18
2018-08-23T12:16:32.206Z,9.03
2018-08-23T12:17:40.370Z,6.95
2018-08-23T12:18:47.426Z,14.83
2018-08-23T12:19:52.090Z,8.28
2018-08-23T12:20:58.343Z,5.92
2018-08-23T12:22:02.930Z,7.22
2018-08-23T12:23:12.859Z,8.28
2018-08-23T12:24:18.020Z,8.68
2018-08-23T12:25:23.353Z,9.48
2018-08-23T12:26:28.270Z,8.75
2018-08-23T12:27:32.483Z,10.65
2018-08-23T12:28:46.705Z,11.30
2018-08-23T12:29:53.114Z,8.40
2018-08-23T12:30:57.653Z,9.78
2018-08-23T12:32:06.648Z,7.70
2018-08-23T12:33:11.401Z,8.68
2018-08-23T12:34:25.572Z,8.65
2018-08-23T12:35:31.365Z,10.85
2018-08-23T12:36:41.078Z,11.28
2018-08-23T12:37:56.259Z,7.35
2018-08-23T12:39:06.779Z,8.40
2018-08-23T12:40:17.113Z,9.55
2018-08-23T12:41:26.482Z,10.05
2018-08-23T12:42:52.333Z,9.45
2018-08-23T12:44:27.225Z,13.15
2018-08-23T12:45:32.752Z,11.35
2018-08-23T12:46:36.875Z,15.23
2018-08-23T12:47:41.281Z,8.20
2018-08-23T12:48:46.029Z,8.58
2018-08-23T12:49:51.219Z,7.90
2018-08-23T12:50:55.656Z,9.48
2018-08-23T12:52:00.028Z,11.15
2018-08-23T12:53:04.152Z,17.32
2018-08-23T12:54:09.447Z,9.03
2018-08-23T12:55:15.352Z,14.47
2018-08-23T12:56:19.488Z,13.13
2018-08-23T12:57:24.702Z,19.37
2018-08-23T12:58:29.240Z,12.73
2018-08-23T12:59:34.324Z,13.25
2018-08-23T13:00:39.399Z,13.98
2018-08-23T13:01:44.247Z,10.40
2018-08-23T13:02:48.486Z,9.95
2018-08-23T13:03:52.652Z,12.78
2018-08-23T13:04:57.161Z,9.50
2018-08-23T13:06:02.035Z,11.08
2018-08-23T13:07:07.307Z,10.08
2018-08-23T13:08:11.794Z,12.78
2018-08-23T13:09:16.090Z,12.33
2018-08-23T13:10:20.210Z,14.70
2018-08-23T13:11:24.443Z,9.95
2018-08-23T13:12:29.177Z,15.83
2018-08-23T13:13:34.678Z,12.18
2018-08-23T13:14:38.780Z,13.48
2018-08-23T13:15:43.470Z,12.43
2018-08-23T13:16:47.607Z,21.25
2018-08-23T13:17:53.769Z,14.10
2018-08-23T13:18:59.189Z,14.20
2018-08-23T13:20:03.587Z,11.53
2018-08-23T13:21:10.746Z,16.67
2018-08-23T13:22:47.205Z,13.05
2018-08-23T13:23:52.472Z,13.20
2018-08-23T13:25:02.790Z,13.18
2018-08-23T13:26:08.733Z,14.28
2018-08-23T13:27:13.291Z,14.28
2018-08-23T13:28:18.339Z,15.50
2018-08-23T13:29:23.480Z,13.95
2018-08-23T13:30:28.148Z,10.90
2018-08-23T13:31:33.284Z,18.82
2018-08-23T13:32:37.792Z,12.45
2018-08-23T13:33:42.625Z,13.95
2018-08-23T13:34:46.767Z,10.72
2018-08-23T13:35:51.401Z,16.62
2018-08-23T13:36:56.521Z,13.95
2018-08-23T13:38:01.407Z,14.98
2018-08-23T13:39:12.777Z,15.70
2018-08-23T13:40:20.176Z,12.47
2018-08-23T13:41:24.261Z,18.55
2018-08-23T13:42:28.424Z,14.63
2018-08-23T13:43:32.954Z,15.23
2018-08-23T13:44:37.673Z,16.17
2018-08-23T13:45:43.924Z,18.87
2018-08-23T13:46:48.120Z,11.00
2018-08-23T13:47:52.834Z,12.05
2018-08-23T13:48:57.431Z,14.70
2018-08-23T13:50:03.615Z,15.38
2018-08-23T13:51:11.158Z,14.85
2018-08-23T13:52:17.081Z,12.88
2018-08-23T13:53:23.224Z,11.85
2018-08-23T13:54:31.737Z,17.05
2018-08-23T13:55:38.191Z,15.88
2018-08-23T13:56:43.611Z,13.90
2018-08-23T13:57:50.108Z,18.95
2018-08-23T13:58:56.751Z,18.02
2018-08-23T14:00:02.783Z,16.15
2018-08-23T14:01:07.189Z,18.57
2018-08-23T14:02:12.222Z,16.40
2018-08-23T14:03:20.431Z,15.90
2018-08-23T14:04:29.606Z,13.62
2018-08-23T14:05:34.191Z,23.02
2018-08-23T14:06:38.720Z,18.67
2018-08-23T14:07:43.763Z,17.25
2018-08-23T14:08:48.172Z,17.62
2018-08-23T14:09:55.092Z,18.40
2018-08-23T14:11:01.098Z,17.25
2018-08-23T14:12:06.307Z,18.17
2018-08-23T14:13:12.309Z,15.53
2018-08-23T14:14:18.687Z,14.90
2018-08-23T14:15:28.219Z,25.82
2018-08-23T14:16:33.527Z,21.65
2018-08-23T14:17:39.351Z,13.62
2018-08-23T14:18:45.466Z,14.65
2018-08-23T14:19:51.104Z,14.90
2018-08-23T14:20:56.359Z,16.65
2018-08-23T14:22:01.433Z,27.15
2018-08-23T14:23:07.549Z,21.40
2018-08-23T14:24:14.140Z,18.10
2018-08-23T14:25:19.094Z,15.58